createdAt,value
2019-01-24T00:00:25.734Z,-4.60
2019-01-24T00:03:05.386Z,-4.60
2019-01-24T00:05:45.068Z,-4.50
2019-01-24T00:08:24.328Z,-4.50
2019-01-24T00:11:03.531Z,-4.40
2019-01-24T00:13:44.123Z,-4.40
2019-01-24T00:16:23.310Z,-4.40
2019-01-24T00:19:02.575Z,-4.50
2019-01-24T00:21:41.701Z,-4.60
2019-01-24T00:24:20.879Z,-4.70
2019-01-24T00:27:00.501Z,-4.60
2019-01-24T00:29:39.665Z,-4.50
2019-01-24T00:32:18.863Z,-4.50
2019-01-24T00:34:58.134Z,-4.50
2019-01-24T00:37:37.354Z,-4.60
2019-01-24T00:40:22.355Z,-4.60
2019-01-24T00:43:01.476Z,-4.60
2019-01-24T00:45:41.079Z,-4.70
2019-01-24T00:48:20.205Z,-4.70
2019-01-24T00:50:59.328Z,-4.70
2019-01-24T00:53:38.611Z,-4.70
2019-01-24T00:56:17.900Z,-4.70
2019-01-24T00:58:57.149Z,-4.70
2019-01-24T01:01:36.266Z,-4.70
2019-01-24T01:04:15.500Z,-4.70
2019-01-24T01:06:54.574Z,-4.80
2019-01-24T01:09:36.182Z,-4.80
2019-01-24T01:12:15.390Z,-4.80
2019-01-24T01:14:54.636Z,-4.80
2019-01-24T01:17:33.780Z,-4.80
2019-01-24T01:20:17.086Z,-4.80
2019-01-24T01:22:57.420Z,-4.80
2019-01-24T01:25:36.609Z,-4.80
2019-01-24T01:28:15.698Z,-4.80
2019-01-24T01:30:54.800Z,-4.70
2019-01-24T01:33:34.109Z,-4.70
2019-01-24T01:36:15.323Z,-4.60
2019-01-24T01:38:54.509Z,-4.70
2019-01-24T01:41:33.602Z,-4.70
2019-01-24T01:44:12.855Z,-4.80
2019-01-24T01:46:53.503Z,-4.90
2019-01-24T01:49:32.600Z,-4.90
2019-01-24T01:52:11.683Z,-5.00
2019-01-24T01:54:51.214Z,-4.90
2019-01-24T01:57:30.483Z,-4.90
2019-01-24T02:00:14.877Z,-4.90
2019-01-24T02:02:54.190Z,-4.90
2019-01-24T02:05:36.107Z,-4.90
2019-01-24T02:08:15.226Z,-5.00
2019-01-24T02:10:54.409Z,-5.00
2019-01-24T02:13:33.584Z,-4.90
2019-01-24T02:16:12.771Z,-5.00
2019-01-24T02:18:51.953Z,-5.00
2019-01-24T02:21:31.814Z,-5.10
2019-01-24T02:24:11.061Z,-5.20
2019-01-24T02:26:52.744Z,-5.30
2019-01-24T02:29:31.937Z,-5.30
2019-01-24T02:32:14.527Z,-5.40
2019-01-24T02:34:53.867Z,-5.30
2019-01-24T02:37:35.103Z,-5.40
2019-01-24T02:40:14.702Z,-5.40
2019-01-24T02:42:53.917Z,-5.50
2019-01-24T02:45:33.140Z,-5.50
2019-01-24T02:48:12.290Z,-5.50
2019-01-24T02:50:51.628Z,-5.40
2019-01-24T02:53:30.726Z,-5.40
2019-01-24T02:56:09.984Z,-5.40
2019-01-24T02:58:49.111Z,-5.50
2019-01-24T03:01:28.269Z,-5.40
2019-01-24T03:04:07.573Z,-5.40
2019-01-24T03:06:50.950Z,-5.40
2019-01-24T03:09:30.389Z,-5.40
2019-01-24T03:12:11.732Z,-5.40
2019-01-24T03:14:50.898Z,-5.30
2019-01-24T03:17:30.236Z,-5.20
2019-01-24T03:20:10.018Z,-5.10
2019-01-24T03:22:49.363Z,-5.20
2019-01-24T03:25:28.531Z,-5.30
2019-01-24T03:28:07.692Z,-5.30
2019-01-24T03:30:46.904Z,-5.20
2019-01-24T03:33:26.092Z,-5.20
2019-01-24T03:36:05.428Z,-5.10
2019-01-24T03:38:44.624Z,-5.10
2019-01-24T03:41:23.930Z,-5.10
2019-01-24T03:44:03.132Z,-5.10
2019-01-24T03:46:42.332Z,-5.10
2019-01-24T03:49:21.534Z,-5.10
2019-01-24T03:52:00.848Z,-5.10
2019-01-24T03:54:39.996Z,-5.10
2019-01-24T03:57:19.192Z,-5.10
2019-01-24T03:59:58.506Z,-5.00
2019-01-24T04:02:37.787Z,-4.90
2019-01-24T04:05:19.287Z,-4.80
2019-01-24T04:07:58.557Z,-4.90
2019-01-24T04:10:37.676Z,-4.90
2019-01-24T04:13:16.770Z,-4.90
2019-01-24T04:15:55.994Z,-4.90
2019-01-24T04:18:35.204Z,-4.80
2019-01-24T04:21:14.275Z,-4.80
2019-01-24T04:23:53.560Z,-4.80
2019-01-24T04:26:32.746Z,-4.80
2019-01-24T04:29:11.814Z,-4.70
2019-01-24T04:31:50.906Z,-4.70
2019-01-24T04:34:30.260Z,-4.70
2019-01-24T04:37:09.341Z,-4.70
2019-01-24T04:39:50.711Z,-4.60
2019-01-24T04:42:30.117Z,-4.50
2019-01-24T04:45:13.370Z,-4.50
2019-01-24T04:47:52.462Z,-4.50
2019-01-24T04:50:31.566Z,-4.50
2019-01-24T04:53:10.755Z,-4.50
2019-01-24T04:55:50.062Z,-4.40
2019-01-24T04:58:30.195Z,-4.50
2019-01-24T05:01:12.706Z,-4.50
2019-01-24T05:03:52.925Z,-4.60
2019-01-24T05:06:32.000Z,-4.70
2019-01-24T05:09:11.144Z,-4.60
2019-01-24T05:11:50.246Z,-4.70
2019-01-24T05:14:29.359Z,-4.60
2019-01-24T05:17:08.474Z,-4.60
2019-01-24T05:19:47.751Z,-4.70
2019-01-24T05:22:26.831Z,-4.70
2019-01-24T05:25:10.138Z,-4.70
2019-01-24T05:27:49.255Z,-4.80
2019-01-24T05:30:30.101Z,-4.70
2019-01-24T05:33:09.181Z,-4.70
2019-01-24T05:35:48.254Z,-4.70
2019-01-24T05:38:27.388Z,-4.70
2019-01-24T05:41:06.511Z,-4.70
2019-01-24T05:43:45.633Z,-4.70
2019-01-24T05:46:28.093Z,-4.60
2019-01-24T05:49:07.167Z,-4.50
2019-01-24T05:51:47.053Z,-4.50
2019-01-24T05:54:26.416Z,-4.50
2019-01-24T05:57:05.660Z,-4.50
2019-01-24T05:59:44.751Z,-4.50
2019-01-24T06:02:23.934Z,-4.40
2019-01-24T06:05:03.085Z,-4.40
2019-01-24T06:07:42.303Z,-4.30
2019-01-24T06:10:21.498Z,-4.20
2019-01-24T06:13:00.730Z,-4.20
2019-01-24T06:15:39.968Z,-4.10
2019-01-24T06:18:21.431Z,-4.00
2019-01-24T06:21:00.592Z,-4.00
2019-01-24T06:23:39.684Z,-4.00
2019-01-24T06:26:18.781Z,-4.00
2019-01-24T06:28:57.974Z,-4.00
2019-01-24T06:31:37.184Z,-4.00
2019-01-24T06:34:18.150Z,-4.00
2019-01-24T06:36:57.213Z,-4.00
2019-01-24T06:39:36.404Z,-4.00
2019-01-24T06:42:15.712Z,-4.00
2019-01-24T06:44:54.882Z,-4.00
2019-01-24T06:47:34.068Z,-3.90
2019-01-24T06:50:14.561Z,-3.90
2019-01-24T06:52:53.733Z,-3.80
2019-01-24T06:55:33.132Z,-3.80
2019-01-24T06:58:12.451Z,-3.70
2019-01-24T07:00:51.702Z,-3.70
2019-01-24T07:03:30.831Z,-3.70
2019-01-24T07:06:10.069Z,-3.70
2019-01-24T07:08:50.401Z,-3.70
2019-01-24T07:11:29.906Z,-3.70
2019-01-24T07:14:10.641Z,-3.60
2019-01-24T07:16:52.806Z,-3.60
2019-01-24T07:19:31.902Z,-3.50
2019-01-24T07:22:11.091Z,-3.60
2019-01-24T07:24:50.276Z,-3.60
2019-01-24T07:27:29.366Z,-3.50
2019-01-24T07:30:11.755Z,-3.40
2019-01-24T07:32:50.944Z,-3.40
2019-01-24T07:35:33.537Z,-3.40
2019-01-24T07:38:18.441Z,-3.40
2019-01-24T07:41:01.213Z,-3.40
2019-01-24T07:43:41.060Z,-3.30
2019-01-24T07:46:20.221Z,-3.40
2019-01-24T07:48:59.896Z,-3.50
2019-01-24T07:51:40.726Z,-3.50
2019-01-24T07:54:19.889Z,-3.50
2019-01-24T07:57:00.711Z,-3.50
2019-01-24T07:59:39.819Z,-3.40
2019-01-24T08:02:19.124Z,-3.20
2019-01-24T08:04:58.261Z,-3.30
2019-01-24T08:07:37.411Z,-3.30
2019-01-24T08:10:18.384Z,-3.30
2019-01-24T08:12:57.513Z,-3.30
2019-01-24T08:15:36.616Z,-3.30
2019-01-24T08:18:15.673Z,-3.40
2019-01-24T08:20:54.793Z,-3.30
2019-01-24T08:23:34.094Z,-3.20
2019-01-24T08:26:13.304Z,-3.20
2019-01-24T08:28:52.396Z,-3.20
2019-01-24T08:31:31.572Z,-3.20
2019-01-24T08:34:10.693Z,-3.10
2019-01-24T08:36:49.841Z,-3.00
2019-01-24T08:39:29.033Z,-3.00
2019-01-24T08:42:08.451Z,-3.10
2019-01-24T08:44:47.562Z,-3.00
2019-01-24T08:47:26.710Z,-2.80
2019-01-24T08:50:10.342Z,-2.80
2019-01-24T08:52:49.724Z,-2.70
2019-01-24T08:55:41.331Z,-2.60
2019-01-24T08:58:20.479Z,-2.70
2019-01-24T09:00:59.650Z,-2.70
2019-01-24T09:03:38.793Z,-2.60
2019-01-24T09:06:22.487Z,-2.60
2019-01-24T09:08:58.766Z,-2.60
2019-01-24T09:11:38.103Z,-2.50
2019-01-24T09:14:17.186Z,-2.50
2019-01-24T09:16:56.242Z,-2.40
2019-01-24T09:19:35.310Z,-2.20
2019-01-24T09:22:14.371Z,-2.10
2019-01-24T09:24:53.421Z,-2.00
2019-01-24T09:27:32.628Z,-2.10
2019-01-24T09:30:16.377Z,-1.90
2019-01-24T09:32:55.488Z,-1.70
2019-01-24T09:35:34.636Z,-1.70
2019-01-24T09:38:13.720Z,-1.70
2019-01-24T09:40:52.908Z,-1.50
2019-01-24T09:43:32.019Z,-1.50
2019-01-24T09:46:11.279Z,-1.50
2019-01-24T09:48:51.761Z,-1.70
2019-01-24T09:51:31.032Z,-1.70
2019-01-24T09:54:10.214Z,-1.60
2019-01-24T09:56:49.316Z,-1.70
2019-01-24T09:59:28.529Z,-1.60
2019-01-24T10:02:07.824Z,-1.50
2019-01-24T10:04:46.976Z,-1.50
2019-01-24T10:07:26.054Z,-1.40
2019-01-24T10:10:09.351Z,-1.20
2019-01-24T10:12:48.565Z,-1.20
2019-01-24T10:15:27.979Z,-1.30
2019-01-24T10:18:07.897Z,-1.30
2019-01-24T10:20:47.523Z,-1.10
2019-01-24T10:23:26.648Z,-0.90
2019-01-24T10:26:05.908Z,-0.90
2019-01-24T10:28:45.003Z,-0.80
2019-01-24T10:31:24.062Z,-0.70
2019-01-24T10:34:03.408Z,-0.70
2019-01-24T10:36:43.290Z,-0.70
2019-01-24T10:39:22.615Z,-0.70
2019-01-24T10:42:01.820Z,-0.60
2019-01-24T10:44:40.950Z,-0.50
2019-01-24T10:47:19.992Z,-0.60
2019-01-24T10:49:59.103Z,-0.70
2019-01-24T10:52:38.342Z,-0.80
2019-01-24T10:55:20.821Z,-0.70
2019-01-24T10:58:02.787Z,-0.70
2019-01-24T11:00:43.396Z,-0.60
2019-01-24T11:03:22.636Z,-0.60
2019-01-24T11:06:01.933Z,-0.70
2019-01-24T11:08:41.065Z,-0.50
2019-01-24T11:11:20.254Z,-0.50
2019-01-24T11:13:59.406Z,-0.50
2019-01-24T11:16:38.679Z,-0.30
2019-01-24T11:19:17.904Z,-0.40
2019-01-24T11:21:56.974Z,-0.30
2019-01-24T11:24:36.011Z,-0.60
2019-01-24T11:27:15.184Z,-0.80
2019-01-24T11:29:54.287Z,-0.60
2019-01-24T11:32:33.405Z,-0.50
2019-01-24T11:35:14.949Z,-0.40
2019-01-24T11:37:54.743Z,-0.40
2019-01-24T11:40:33.935Z,-0.30
2019-01-24T11:43:14.218Z,-0.30
2019-01-24T11:45:53.465Z,-0.30
2019-01-24T11:48:32.634Z,-0.10
2019-01-24T11:51:11.733Z,0.00
2019-01-24T11:53:53.156Z,-0.10
2019-01-24T11:56:31.613Z,0.00
2019-01-24T11:59:11.757Z,0.10
2019-01-24T12:01:50.915Z,0.00
2019-01-24T12:04:30.007Z,-0.10
2019-01-24T12:07:11.290Z,-0.10
2019-01-24T12:09:50.498Z,-0.20
2019-01-24T12:12:29.635Z,-0.40
2019-01-24T12:15:11.904Z,-0.20
2019-01-24T12:17:52.248Z,-0.20
2019-01-24T12:20:31.422Z,-0.20
2019-01-24T12:23:10.538Z,-0.40
2019-01-24T12:25:49.915Z,-0.50
2019-01-24T12:28:29.051Z,-0.60
2019-01-24T12:31:08.220Z,-0.50
2019-01-24T12:33:47.430Z,-0.60
2019-01-24T12:36:26.527Z,-0.70
2019-01-24T12:39:10.486Z,-0.80
2019-01-24T12:41:49.577Z,-0.70
2019-01-24T12:44:28.659Z,-0.80
2019-01-24T12:47:07.720Z,-0.90
2019-01-24T12:49:58.585Z,-0.90
2019-01-24T12:52:37.816Z,-0.80
2019-01-24T12:55:17.583Z,-0.80
2019-01-24T12:57:56.771Z,-0.70
2019-01-24T13:00:41.179Z,-0.60
2019-01-24T13:03:20.253Z,-0.50
2019-01-24T13:05:59.388Z,-0.40
2019-01-24T13:08:38.466Z,-0.60
2019-01-24T13:11:17.828Z,-0.70
2019-01-24T13:13:57.062Z,-0.70
2019-01-24T13:16:36.246Z,-0.80
2019-01-24T13:19:15.367Z,-0.80
2019-01-24T13:21:54.424Z,-0.80
2019-01-24T13:24:33.479Z,-0.70
2019-01-24T13:27:12.560Z,-0.60
2019-01-24T13:29:51.621Z,-0.80
2019-01-24T13:32:30.771Z,-1.00
2019-01-24T13:35:10.045Z,-1.00
2019-01-24T13:37:49.380Z,-1.10
2019-01-24T13:40:31.993Z,-1.10
2019-01-24T13:43:11.042Z,-1.00
2019-01-24T13:45:50.161Z,-1.10
2019-01-24T13:48:29.249Z,-1.20
2019-01-24T13:51:08.428Z,-1.10
2019-01-24T13:53:47.475Z,-1.10
2019-01-24T13:56:26.760Z,-1.10
2019-01-24T13:59:06.061Z,-1.10
2019-01-24T14:01:45.295Z,-1.10
2019-01-24T14:04:37.366Z,-1.10
2019-01-24T14:07:16.544Z,-1.10
2019-01-24T14:09:55.709Z,-1.10
2019-01-24T14:12:34.778Z,-1.10
2019-01-24T14:15:15.698Z,-1.10
2019-01-24T14:17:54.777Z,-1.20
2019-01-24T14:20:34.011Z,-1.10
2019-01-24T14:23:13.158Z,-1.10
2019-01-24T14:25:52.375Z,-1.10
2019-01-24T14:28:31.569Z,-1.10
2019-01-24T14:31:11.770Z,-1.00
2019-01-24T14:33:50.907Z,-1.10
2019-01-24T14:36:31.711Z,-1.20
2019-01-24T14:39:11.423Z,-1.30
2019-01-24T14:41:50.592Z,-1.40
2019-01-24T14:44:29.742Z,-1.40
2019-01-24T14:47:11.413Z,-1.30
2019-01-24T14:49:50.594Z,-1.30
2019-01-24T14:52:31.122Z,-1.30
2019-01-24T14:55:11.276Z,-1.30
2019-01-24T14:57:50.954Z,-1.20
2019-01-24T15:00:36.846Z,-1.10
2019-01-24T15:03:16.571Z,-1.10
2019-01-24T15:05:55.827Z,-1.30
2019-01-24T15:08:35.115Z,-1.40
2019-01-24T15:11:14.698Z,-1.50
2019-01-24T15:13:54.429Z,-1.50
2019-01-24T15:16:34.285Z,-1.50
2019-01-24T15:19:13.593Z,-1.50
2019-01-24T15:21:53.122Z,-1.40
2019-01-24T15:24:32.461Z,-1.40
2019-01-24T15:27:13.063Z,-1.50
2019-01-24T15:29:52.361Z,-1.50
2019-01-24T15:32:31.908Z,-1.60
2019-01-24T15:35:11.335Z,-1.60
2019-01-24T15:37:54.592Z,-1.50
2019-01-24T15:40:35.360Z,-1.60
2019-01-24T15:43:14.780Z,-1.60
2019-01-24T15:45:54.237Z,-1.60
2019-01-24T15:48:35.212Z,-1.70
2019-01-24T15:51:26.301Z,-1.60
2019-01-24T15:54:06.177Z,-1.60
2019-01-24T15:56:45.653Z,-1.60
2019-01-24T15:59:24.828Z,-1.80
2019-01-24T16:02:03.945Z,-1.80
2019-01-24T16:04:43.556Z,-1.80
2019-01-24T16:07:22.892Z,-1.70
2019-01-24T16:10:02.918Z,-1.80
2019-01-24T16:12:42.188Z,-1.90
2019-01-24T16:15:30.984Z,-1.90
2019-01-24T16:18:11.819Z,-1.90
2019-01-24T16:20:51.193Z,-1.90
2019-01-24T16:23:31.201Z,-1.90
2019-01-24T16:26:11.549Z,-1.90
2019-01-24T16:28:50.774Z,-2.00
2019-01-24T16:31:31.779Z,-1.90
2019-01-24T16:34:11.574Z,-1.90
2019-01-24T16:36:51.313Z,-2.00
2019-01-24T16:39:31.170Z,-2.00
2019-01-24T16:42:10.815Z,-1.80
2019-01-24T16:44:51.257Z,-1.80
2019-01-24T16:47:30.956Z,-1.90
2019-01-24T16:50:11.651Z,-2.00
2019-01-24T16:52:52.791Z,-1.90
2019-01-24T16:55:35.178Z,-1.80
2019-01-24T16:58:15.187Z,-1.90
2019-01-24T17:01:04.603Z,-1.90
2019-01-24T17:03:43.937Z,-1.90
2019-01-24T17:06:24.267Z,-1.90
2019-01-24T17:09:05.909Z,-2.00
2019-01-24T17:11:45.315Z,-1.90
2019-01-24T17:14:27.493Z,-1.90
2019-01-24T17:17:06.890Z,-1.80
2019-01-24T17:19:47.382Z,-1.90
2019-01-24T17:22:29.286Z,-1.90
2019-01-24T17:25:13.403Z,-2.00
2019-01-24T17:27:54.598Z,-2.00
2019-01-24T17:30:36.223Z,-2.10
2019-01-24T17:33:19.850Z,-2.10
2019-01-24T17:36:01.062Z,-2.00
2019-01-24T17:38:40.635Z,-2.00
2019-01-24T17:41:20.984Z,-2.00
2019-01-24T17:44:03.327Z,-2.00
2019-01-24T17:46:44.100Z,-2.00
2019-01-24T17:49:28.049Z,-2.10
2019-01-24T17:52:11.112Z,-2.10
2019-01-24T17:54:52.494Z,-2.10
2019-01-24T17:57:40.594Z,-2.10
2019-01-24T18:00:29.654Z,-2.00
2019-01-24T18:03:11.032Z,-1.90
2019-01-24T18:05:50.601Z,-1.80
2019-01-24T18:08:35.323Z,-1.70
2019-01-24T18:11:15.285Z,-1.80
2019-01-24T18:13:57.002Z,-2.00
2019-01-24T18:16:37.296Z,-2.00
2019-01-24T18:19:20.439Z,-2.10
2019-01-24T18:22:00.817Z,-2.10
2019-01-24T18:24:46.149Z,-2.10
2019-01-24T18:27:28.551Z,-2.10
2019-01-24T18:30:22.612Z,-2.10
2019-01-24T18:33:07.322Z,-2.00
2019-01-24T18:35:50.133Z,-1.90
2019-01-24T18:38:38.611Z,-2.00
2019-01-24T18:41:17.858Z,-2.10
2019-01-24T18:43:58.963Z,-2.10
2019-01-24T18:46:39.304Z,-2.00
2019-01-24T18:49:20.960Z,-2.10
2019-01-24T18:52:01.189Z,-2.10
2019-01-24T18:54:43.096Z,-2.10
2019-01-24T18:57:23.217Z,-2.10
2019-01-24T19:00:04.465Z,-2.10
2019-01-24T19:02:51.251Z,-2.10
2019-01-24T19:05:34.122Z,-2.10
2019-01-24T19:08:15.850Z,-2.20
2019-01-24T19:10:56.636Z,-2.10
2019-01-24T19:13:36.857Z,-2.10
2019-01-24T19:16:16.861Z,-2.10
2019-01-24T19:18:58.309Z,-2.20
2019-01-24T19:21:39.590Z,-2.10
2019-01-24T19:24:20.122Z,-2.20
2019-01-24T19:27:00.669Z,-2.20
2019-01-24T19:29:41.224Z,-2.10
2019-01-24T19:32:21.532Z,-2.10
2019-01-24T19:35:01.774Z,-2.00
2019-01-24T19:37:42.154Z,-2.00
2019-01-24T19:40:23.458Z,-2.00
2019-01-24T19:43:04.887Z,-2.10
2019-01-24T19:45:48.089Z,-2.00
2019-01-24T19:48:31.209Z,-2.20
2019-01-24T19:51:14.250Z,-2.30
2019-01-24T19:53:56.493Z,-2.30
2019-01-24T19:56:37.275Z,-2.30
2019-01-24T19:59:17.362Z,-2.30
2019-01-24T20:01:59.388Z,-2.30
2019-01-24T20:04:41.453Z,-2.40
2019-01-24T20:07:23.489Z,-2.30
2019-01-24T20:10:05.547Z,-2.30
2019-01-24T20:12:47.055Z,-2.30
2019-01-24T20:15:30.519Z,-2.30
2019-01-24T20:18:11.661Z,-2.10
2019-01-24T20:20:51.767Z,-2.00
2019-01-24T20:23:32.224Z,-2.10
2019-01-24T20:26:12.847Z,-2.20
2019-01-24T20:28:53.120Z,-2.20
2019-01-24T20:31:33.300Z,-2.20
2019-01-24T20:34:13.720Z,-2.20
2019-01-24T20:36:54.102Z,-2.30
2019-01-24T20:39:34.706Z,-2.30
2019-01-24T20:42:15.041Z,-2.20
2019-01-24T20:44:56.322Z,-2.20
2019-01-24T20:47:36.981Z,-2.30
2019-01-24T20:50:20.507Z,-2.30
2019-01-24T20:53:12.753Z,-2.30
2019-01-24T20:55:54.103Z,-2.40
2019-01-24T20:58:33.931Z,-2.30
2019-01-24T21:01:15.655Z,-2.40
2019-01-24T21:03:59.286Z,-2.40
2019-01-24T21:06:39.741Z,-2.30
2019-01-24T21:09:20.674Z,-2.20
2019-01-24T21:12:01.067Z,-2.20
2019-01-24T21:14:44.081Z,-2.20
2019-01-24T21:17:24.804Z,-2.20
2019-01-24T21:20:06.303Z,-2.30
2019-01-24T21:22:47.843Z,-2.10
2019-01-24T21:25:30.445Z,-2.20
2019-01-24T21:28:10.995Z,-2.30
2019-01-24T21:31:01.203Z,-2.30
2019-01-24T21:33:48.459Z,-2.40
2019-01-24T21:36:28.205Z,-2.40
2019-01-24T21:39:12.932Z,-2.30
2019-01-24T21:41:54.564Z,-2.30
2019-01-24T21:44:34.668Z,-2.50
2019-01-24T21:47:14.279Z,-2.40
2019-01-24T21:49:54.052Z,-2.30
2019-01-24T21:52:35.077Z,-2.40
2019-01-24T21:55:19.541Z,-2.40
2019-01-24T21:57:59.408Z,-2.40
2019-01-24T22:00:39.053Z,-2.30
2019-01-24T22:03:18.521Z,-2.30
2019-01-24T22:05:57.926Z,-2.40
2019-01-24T22:08:37.359Z,-2.40
2019-01-24T22:11:18.082Z,-2.40
2019-01-24T22:13:57.379Z,-2.40
2019-01-24T22:16:36.775Z,-2.50
2019-01-24T22:19:16.038Z,-2.50
2019-01-24T22:21:56.595Z,-2.50
2019-01-24T22:24:35.702Z,-2.40
2019-01-24T22:27:15.078Z,-2.40
2019-01-24T22:29:54.316Z,-2.40
2019-01-24T22:32:33.665Z,-2.40
2019-01-24T22:35:13.155Z,-2.40
2019-01-24T22:37:55.531Z,-2.40
2019-01-24T22:40:34.665Z,-2.50
2019-01-24T22:43:13.885Z,-2.60
2019-01-24T22:45:53.284Z,-2.50
2019-01-24T22:48:32.995Z,-2.60
2019-01-24T22:51:12.262Z,-2.50
2019-01-24T22:53:51.765Z,-2.60
2019-01-24T22:56:35.425Z,-2.50
2019-01-24T22:59:15.212Z,-2.50
2019-01-24T23:02:05.768Z,-2.50
2019-01-24T23:04:45.252Z,-2.50
2019-01-24T23:07:24.681Z,-2.60
2019-01-24T23:10:05.823Z,-2.50
2019-01-24T23:12:45.040Z,-2.50
2019-01-24T23:15:24.292Z,-2.70
2019-01-24T23:18:05.508Z,-2.80
2019-01-24T23:20:44.643Z,-2.70
2019-01-24T23:23:25.080Z,-2.80
2019-01-24T23:26:04.431Z,-2.80
2019-01-24T23:28:43.644Z,-2.80
2019-01-24T23:31:22.874Z,-2.60
2019-01-24T23:34:02.233Z,-2.60
2019-01-24T23:36:41.562Z,-2.60
2019-01-24T23:39:22.259Z,-2.60
2019-01-24T23:42:01.539Z,-2.70
2019-01-24T23:44:40.665Z,-2.70
2019-01-24T23:47:19.925Z,-2.70
2019-01-24T23:49:59.239Z,-2.80
2019-01-24T23:52:38.475Z,-2.70
2019-01-24T23:55:17.746Z,-2.70
2019-01-24T23:57:57.034Z,-2.50
